• Join FlightAware (Why Join?)
  • Login
  • US Flag 
03:43AM EDT


 

Airport Tracker/Info


-or-


 

Live Flight TrackerFlight Track Log ✈ JZA7940 ✈ 05-May-2013 ✈ KMKE - CYYZ

Flight Track Log - Related Links

Times and Time Zones

All times are in EDT time to prevent confusion due to time zone crossing. See the JZA7940 flight status page for this flight to view local times or setup timezone preferences in your user account.

Time Position Orientation Groundspeed Altitude Reporting Facility
EDT Latitude Longitude Course Direction KTS MPH feet Rate Location/Type
10:14PM 42.9500 -87.8833 97° East 158 182 1,700  Level KMKE
10:15PM 42.9478 -87.8569 97° East 158 182 2,400 2,160 Climbing Chicago Center
10:16PM 42.9492 -87.7825 89° East 198 228 4,800 2,580 Climbing Chicago Center
10:17PM 42.9561 -87.6836 84° East 255 293 7,800 2,820 Climbing Chicago Center
10:18PM 42.9619 -87.5811 86° East 270 311 10,700 2,160 Climbing Chicago Center
10:19PM 42.9678 -87.4617 86° East 316 364 12,200 1,560 Climbing Chicago Center
10:20PM 42.9767 -87.3075 85° East 355 409 13,900 1,800 Climbing Chicago Center
10:21PM 42.9872 -87.1619 84° East 383 441 15,900 2,160 Climbing Chicago Center
10:22PM 42.9981 -87.0233 84° East 370 426 18,300 2,100 Climbing Chicago Center
10:23PM 43.0094 -86.8869 83° East 364 419 20,300 1,920 Climbing Chicago Center
10:24PM 43.0194 -86.7519 84° East 359 413 22,300 1,860 Climbing Chicago Center
10:25PM 43.0303 -86.6175 84° East 356 410 24,200 1,620 Climbing Chicago Center
10:26PM 43.0406 -86.4817 84° East 360 414 25,600 1,140 Climbing Chicago Center
10:27PM 43.0503 -86.3422 85° East 367 422 26,600 960 Climbing Chicago Center
10:28PM 43.0611 -86.1947 84° East 386 444 27,600 1,020 Climbing Chicago Center
10:29PM 43.0719 -86.0389 85° East 395 455 28,700 1,020 Climbing Chicago Center
10:30PM 43.0817 -85.8869 85° East 400 460 29,700 960 Climbing Chicago Center
10:31PM 43.0933 -85.7222 84° East 410 472 30,700 960 Climbing Chicago Center
10:32PM 43.1036 -85.5706 85° East 405 466 31,700 960 Climbing Chicago Center
10:33PM 43.1131 -85.4175 84° East 403 464 32,700 600 Climbing Chicago Center
10:34PM 43.1256 -85.2336 85° East 404 465 33,000 180 Climbing Chicago Center
10:35PM 43.1292 -85.1353 87° East 409 471 33,000  Level Cleveland Center
10:36PM 43.1417 -84.9711 84° East 416 479 33,000  Level Cleveland Center
10:37PM 43.1522 -84.8039 85° East 427 491 33,000  Level Cleveland Center
10:38PM 43.1625 -84.6339 85° East 438 504 33,000  Level Cleveland Center
10:39PM 43.1786 -84.4639 83° East 443 510 33,000  Level Cleveland Center
10:40PM 43.1925 -84.2911 84° East 443 510 33,000  Level Cleveland Center
10:41PM 43.2064 -84.1153 84° East 448 516 33,000  Level Cleveland Center
10:42PM 43.2200 -83.9450 84° East 454 522 33,000  Level Cleveland Center
10:43PM 43.2353 -83.7664 83° East 460 529 33,000  Level Cleveland Center
10:44PM 43.2506 -83.5903 83° East 460 529 33,000  Level Cleveland Center
10:45PM 43.2656 -83.4086 83° East 460 529 33,000  Level Cleveland Center
10:46PM 43.2781 -83.2353 84° East 460 529 33,000 -120 Level Cleveland Center
10:47PM 43.2903 -83.0561 85° East 465 535 32,800 -660 Descending Cleveland Center
10:48PM 43.3044 -82.8739 84° East 465 535 31,700 -1,020 Descending Cleveland Center
10:49PM 43.3161 -82.7003 85° East 465 535 30,800 -1,020 Descending Cleveland Center
10:50PM 43.3275 -82.5239 85° East 465 535 29,700 -900 Descending Cleveland Center
10:51PM 43.3428 -82.3531 83° East 459 528 29,000 -360 Descending Cleveland Center
10:52PM 43.3333 -82.1333 93° East 460 529 29,000  Level Toronto Center
10:53PM 43.3500 -81.9500 83° East 460 529 29,000  Level Toronto Center
10:54PM 43.3667 -81.7667 83° East 460 529 29,000 -420 Level Toronto Center
10:55PM 43.3833 -81.5833 83° East 470 541 28,200 -1,920 Descending Toronto Center
10:56PM 43.3833 -81.4167 90° East 460 529 25,200 -3,060 Descending Toronto Center
10:57PM 43.4000 -81.2333 83° East 460 529 22,100 -3,000 Descending Toronto Center
10:58PM 43.4000 -81.0833 90° East 430 495 19,200 -3,000 Descending Toronto Center
10:59PM 43.4167 -80.9167 82° East 420 483 16,200 -3,000 Descending Toronto Center
11:00PM 43.4333 -80.7833 80° East 400 460 13,300 -2,700 Descending Toronto Center
11:01PM 43.4333 -80.6167 90° East 380 437 10,900 -1,680 Descending Toronto Center
11:02PM 43.4500 -80.5000 79° East 330 380 10,000 -900 Descending Toronto Center
11:03PM 43.4500 -80.4167 90° East 280 322 9,100 -960 Descending Toronto Center
11:04PM 43.4667 -80.3000 79° East 260 299 8,100 -840 Descending Toronto Center
11:05PM 43.4667 -80.2333 90° East 230 265 7,500 -600 Descending Toronto Center
11:06PM 43.4833 -80.1333 77° East 210 242 7,000 -540 Descending Toronto Center
11:07PM 43.4833 -80.0667 90° East 210 242 6,500 -780 Descending Toronto Center
11:08PM 43.4500 -80.0000 125° Southeast 200 230 5,500 -780 Descending Toronto Center
11:09PM 43.4667 -79.9333 71° East 200 230 5,000 -300 Descending Toronto Center
11:10PM 43.5000 -79.8667 55° Northeast 200 230 5,000 -540 Level Toronto Center
11:11PM 43.5500 -79.8167 36° Northeast 190 219 4,000 -960 Descending Toronto Center
11:12PM 43.5833 -79.7667 47° Northeast 170 196 3,100 -900 Descending Toronto Center
11:13PM 43.6000 -79.7333 55° Northeast 170 196 2,300 -900 Descending Toronto Center
11:14PM 43.6333 -79.6833 47° Northeast 160 184 1,400 -840 Descending Toronto Center
11:15PM 43.6667 -79.6500 36° Northeast 130 150 700 -420 Descending Toronto Center
11:16PM 43.6833 -79.6333 36° Northeast 90 104 600 -120 Descending Toronto Center